Map

Track Data

SID SEASON NUMBER BASIN SUBBASIN NAME ISO_TIME NATURE LAT LON WMO_WIND WMO_PRES WMO_AGENCY TRACK_TYPE DIST2LAND LANDFALL IFLAG USA_AGENCY USA_ATCF_ID USA_LAT USA_LON USA_RECORD USA_STATUS USA_WIND USA_PRES USA_SSHS USA_R34_NE USA_R34_SE USA_R34_SW USA_R34_NW USA_R50_NE USA_R50_SE USA_R50_SW USA_R50_NW USA_R64_NE USA_R64_SE USA_R64_SW USA_R64_NW USA_POCI USA_ROCI USA_RMW USA_EYE TOKYO_LAT TOKYO_LON TOKYO_GRADE TOKYO_WIND TOKYO_PRES TOKYO_R50_DIR TOKYO_R50_LONG TOKYO_R50_SHORT TOKYO_R30_DIR TOKYO_R30_LONG TOKYO_R30_SHORT TOKYO_LAND CMA_LAT CMA_LON CMA_CAT CMA_WIND CMA_PRES HKO_LAT HKO_LON HKO_CAT HKO_WIND HKO_PRES NEWDELHI_LAT NEWDELHI_LON NEWDELHI_GRADE NEWDELHI_WIND NEWDELHI_PRES NEWDELHI_CI NEWDELHI_DP NEWDELHI_POCI REUNION_LAT REUNION_LON REUNION_TYPE REUNION_WIND REUNION_PRES REUNION_TNUM REUNION_CI REUNION_RMW REUNION_R34_NE REUNION_R34_SE REUNION_R34_SW REUNION_R34_NW REUNION_R50_NE REUNION_R50_SE REUNION_R50_SW REUNION_R50_NW REUNION_R64_NE REUNION_R64_SE REUNION_R64_SW REUNION_R64_NW BOM_LAT BOM_LON BOM_TYPE BOM_WIND BOM_PRES BOM_TNUM BOM_CI BOM_RMW BOM_R34_NE BOM_R34_SE BOM_R34_SW BOM_R34_NW BOM_R50_NE BOM_R50_SE BOM_R50_SW BOM_R50_NW BOM_R64_NE BOM_R64_SE BOM_R64_SW BOM_R64_NW BOM_ROCI BOM_POCI BOM_EYE BOM_POS_METHOD BOM_PRES_METHOD NADI_LAT NADI_LON NADI_CAT NADI_WIND NADI_PRES WELLINGTON_LAT WELLINGTON_LON WELLINGTON_WIND WELLINGTON_PRES DS824_LAT DS824_LON DS824_STAGE DS824_WIND DS824_PRES TD9636_LAT TD9636_LON TD9636_STAGE TD9636_WIND TD9636_PRES TD9635_LAT TD9635_LON TD9635_WIND TD9635_PRES TD9635_ROCI NEUMANN_LAT NEUMANN_LON NEUMANN_CLASS NEUMANN_WIND NEUMANN_PRES MLC_LAT MLC_LON MLC_CLASS MLC_WIND MLC_PRES USA_GUST BOM_GUST BOM_GUST_PER REUNION_GUST REUNION_GUST_PER USA_SEAHGT USA_SEARAD_NE USA_SEARAD_SE USA_SEARAD_SW USA_SEARAD_NW STORM_SPEED STORM_DIR
1891042S13068 1891 5 SI MM NOT_NAMED 1891-02-11 06:00:00 NR -13.0000 68.3000 reunion main 1380 1371 _____O________ -1 -13.0000 68.3000 99 9.90000 2 253
1891042S13068 1891 5 SI MM NOT_NAMED 1891-02-11 09:00:00 NR -13.0308 68.2030 main 1371 1356 _____P________ -1 -13.0308 68.2030 99 2 252
1891042S13068 1891 5 SI MM NOT_NAMED 1891-02-11 12:00:00 NR -13.0634 68.0999 main 1356 1347 _____P________ -1 -13.0634 68.0999 99 2 252
1891042S13068 1891 5 SI MM NOT_NAMED 1891-02-11 15:00:00 NR -13.0997 67.9842 main 1347 1339 _____P________ -1 -13.0997 67.9842 99 3 252
1891042S13068 1891 5 SI MM NOT_NAMED 1891-02-11 18:00:00 NR -13.1415 67.8498 main 1330 1315 _____P________ -1 -13.1415 67.8498 99 3 252
1891042S13068 1891 5 SI MM NOT_NAMED 1891-02-11 21:00:00 NR -13.1907 67.6905 main 1315 1298 _____P________ -1 -13.1907 67.6905 99 4 252
1891042S13068 1891 5 SI MM NOT_NAMED 1891-02-12 00:00:00 NR -13.2490 67.5000 main 1298 1274 _____P________ -1 -13.2490 67.5000 99 4 253
1891042S13068 1891 5 SI MM NOT_NAMED 1891-02-12 03:00:00 NR -13.3182 67.2719 main 1274 1241 _____P________ -1 -13.3182 67.2719 99 5 253
1891042S13068 1891 5 SI MM NOT_NAMED 1891-02-12 06:00:00 NR -13.4000 67.0000 reunion main 1241 1209 _____O________ -1 -13.4000 67.0000 99 9.90000 6 253
1891042S13068 1891 5 SI MM NOT_NAMED 1891-02-12 09:00:00 NR -13.4958 66.6801 main 1209 1168 _____P________ -1 -13.4958 66.6801 99 7 253
1891042S13068 1891 5 SI MM NOT_NAMED 1891-02-12 12:00:00 NR -13.6050 66.3168 main 1168 1128 _____P________ -1 -13.6050 66.3168 99 8 253
1891042S13068 1891 5 SI MM NOT_NAMED 1891-02-12 15:00:00 NR -13.7270 65.9167 main 1128 1081 _____P________ -1 -13.7270 65.9167 99 8 252
1891042S13068 1891 5 SI MM NOT_NAMED 1891-02-12 18:00:00 NR -13.8608 65.4865 main 1081 1041 _____P________ -1 -13.8608 65.4865 99 9 252
1891042S13068 1891 5 SI MM NOT_NAMED 1891-02-12 21:00:00 NR -14.0057 65.0331 main 1033 986 _____P________ -1 -14.0057 65.0331 99 9 251
1891042S13068 1891 5 SI MM NOT_NAMED 1891-02-13 00:00:00 NR -14.1610 64.5631 main 986 939 _____P________ -1 -14.1610 64.5631 99 10 251
1891042S13068 1891 5 SI MM NOT_NAMED 1891-02-13 03:00:00 NR -14.3259 64.0831 main 939 885 _____P________ -1 -14.3259 64.0831 99 10 250
1891042S13068 1891 5 SI MM NOT_NAMED 1891-02-13 06:00:00 NR -14.5000 63.6000 reunion main 885 825 _____O________ -1 -14.5000 63.6000 99 9.90000 11 252
1891042S13068 1891 5 SI MM NOT_NAMED 1891-02-13 09:00:00 NR -14.6725 62.9743 main 825 774 _____P________ -1 -14.6725 62.9743 99 13 254
1891042S13068 1891 5 SI MM NOT_NAMED 1891-02-13 12:00:00 NR -14.8544 62.3189 main 759 710 _____P________ -1 -14.8544 62.3189 99 13 254
1891042S13068 1891 5 SI MM NOT_NAMED 1891-02-13 15:00:00 NR -15.0445 61.6701 main 710 656 _____P________ -1 -15.0445 61.6701 99 13 252
1891042S13068 1891 5 SI MM NOT_NAMED 1891-02-13 18:00:00 NR -15.2419 61.0642 main 656 608 _____P________ -1 -15.2419 61.0642 99 12 250
1891042S13068 1891 5 SI MM NOT_NAMED 1891-02-13 21:00:00 NR -15.4462 60.5376 main 603 563 _____P________ -1 -15.4462 60.5376 99 10 245
1891042S13068 1891 5 SI MM NOT_NAMED 1891-02-14 00:00:00 NR -15.6573 60.1268 main 553 524 _____P________ -1 -15.6573 60.1268 99 8 236
1891042S13068 1891 5 SI MM NOT_NAMED 1891-02-14 03:00:00 NR -15.8752 59.8687 main 524 499 _____P________ -1 -15.8752 59.8687 99 5 215
1891042S13068 1891 5 SI MM NOT_NAMED 1891-02-14 06:00:00 NR -16.1000 59.8000 reunion main 499 484 _____O________ -1 -16.1000 59.8000 99 9.90000 5 158
1891042S13068 1891 5 SI MM NOT_NAMED 1891-02-14 09:00:00 NR -16.3490 60.0668 main 494 481 _____P________ -1 -16.3490 60.0668 99 9 126
1891042S13068 1891 5 SI MM NOT_NAMED 1891-02-14 12:00:00 NR -16.6084 60.5292 main 490 488 _____P________ -1 -16.6084 60.5292 99 12 117
1891042S13068 1891 5 SI MM NOT_NAMED 1891-02-14 15:00:00 NR -16.8710 61.1447 main 506 506 _____P________ -1 -16.8710 61.1447 99 14 112
1891042S13068 1891 5 SI MM NOT_NAMED 1891-02-14 18:00:00 NR -17.1297 61.8703 main 555 555 _____P________ -1 -17.1297 61.8703 99 15 109
1891042S13068 1891 5 SI MM NOT_NAMED 1891-02-14 21:00:00 NR -17.3778 62.6626 main 606 606 _____P________ -1 -17.3778 62.6626 99 16 107
1891042S13068 1891 5 SI MM NOT_NAMED 1891-02-15 00:00:00 NR -17.6091 63.4777 main 671 671 _____P________ -1 -17.6091 63.4777 99 16 106
1891042S13068 1891 5 SI MM NOT_NAMED 1891-02-15 03:00:00 NR -17.8181 64.2716 main 738 738 _____P________ -1 -17.8181 64.2716 99 15 105
1891042S13068 1891 5 SI MM NOT_NAMED 1891-02-15 06:00:00 NR -18.0000 65.0000 reunion main 798 798 _____O________ -1 -18.0000 65.0000 99 9.90000 12 105
1891042S13068 1891 5 SI MM NOT_NAMED 1891-02-15 09:00:00 NR -18.1363 65.4778 main 845 845 _____P________ -1 -18.1363 65.4778 99 9 106
1891042S13068 1891 5 SI MM NOT_NAMED 1891-02-15 12:00:00 NR -18.2476 65.9095 main 882 878 _____P________ -1 -18.2476 65.9095 99 8 105
1891042S13068 1891 5 SI MM NOT_NAMED 1891-02-15 15:00:00 NR -18.3397 66.3051 main 919 919 _____P________ -1 -18.3397 66.3051 99 7 103
1891042S13068 1891 5 SI MM NOT_NAMED 1891-02-15 18:00:00 NR -18.4179 66.6748 main 957 957 _____P________ -1 -18.4179 66.6748 99 7 102
1891042S13068 1891 5 SI MM NOT_NAMED 1891-02-15 21:00:00 NR -18.4878 67.0288 main 985 985 _____P________ -1 -18.4878 67.0288 99 7 102
1891042S13068 1891 5 SI MM NOT_NAMED 1891-02-16 00:00:00 NR -18.5547 67.3775 main 1024 1024 _____P________ -1 -18.5547 67.3775 99 7 102
1891042S13068 1891 5 SI MM NOT_NAMED 1891-02-16 03:00:00 NR -18.6237 67.7311 main 1055 1055 _____P________ -1 -18.6237 67.7311 99 7 102
1891042S13068 1891 5 SI MM NOT_NAMED 1891-02-16 06:00:00 NR -18.7000 68.1000 reunion main 1094 1094 _____O________ -1 -18.7000 68.1000 99 9.90000 7 103
1891042S13068 1891 5 SI MM NOT_NAMED 1891-02-16 09:00:00 NR -18.7876 68.4924 main 1133 1133 _____P________ -1 -18.7876 68.4924 99 8 104
1891042S13068 1891 5 SI MM NOT_NAMED 1891-02-16 12:00:00 NR -18.8858 68.9074 main 1172 1172 _____P________ -1 -18.8858 68.9074 99 8 104
1891042S13068 1891 5 SI MM NOT_NAMED 1891-02-16 15:00:00 NR -18.9929 69.3420 main 1212 1212 _____P________ -1 -18.9929 69.3420 99 9 105
1891042S13068 1891 5 SI MM NOT_NAMED 1891-02-16 18:00:00 NR -19.1070 69.7932 main 1263 1263 _____P________ -1 -19.1070 69.7932 99 9 105
1891042S13068 1891 5 SI MM NOT_NAMED 1891-02-16 21:00:00 NR -19.2265 70.2578 main 1313 1313 _____P________ -1 -19.2265 70.2578 99 9 105
1891042S13068 1891 5 SI MM NOT_NAMED 1891-02-17 00:00:00 NR -19.3497 70.7326 main 1353 1353 _____P________ -1 -19.3497 70.7326 99 9 105
1891042S13068 1891 5 SI MM NOT_NAMED 1891-02-17 03:00:00 NR -19.4747 71.2144 main 1403 1403 _____P________ -1 -19.4747 71.2144 99 9 105
1891042S13068 1891 5 SI MM NOT_NAMED 1891-02-17 06:00:00 NR -19.6000 71.7000 reunion main 1454 _____O________ -1 -19.6000 71.7000 99 9.90000 9 105

About IBTrACS Database

This database is a web-friendly format of International Best Track Archive for Climate Stewardship (IBTrACS), a global best track data archive curated by NOAA dating back to 1842.

Updated: 2021-12-08